Time;durP1;ratioP1;P1;durP2;ratioP2;P2;SDS_P1;SDS_P2;PMS_P1;PMS_P2;Temp;Humidity;BMP_temperature;BMP_pressure;BME280_temperature;BME280_humidity;BME280_pressure;Samples;Min_cycle;Max_cycle;Signal;HPM_P1;HPM_P2
2023/06/28 00:01:21;;;;;;;8.20;4.07;;;;;;;;;;5016084;28;20073;-77
2023/06/28 00:03:48;;;;;;;8.93;4.40;;;;;;;;;;5016244;28;20050;-78
2023/06/28 00:06:14;;;;;;;8.32;4.20;;;;;;;;;;5016039;28;20196;-77
2023/06/28 00:08:40;;;;;;;8.25;4.22;;;;;;;;;;5015822;28;20496;-77
2023/06/28 00:11:07;;;;;;;8.98;4.50;;;;;;;;;;5015377;28;20053;-77
2023/06/28 00:13:33;;;;;;;9.63;4.70;;;;;;;;;;5014665;28;20045;-77
2023/06/28 00:15:59;;;;;;;8.45;4.32;;;;;;;;;;5015969;28;20075;-77
2023/06/28 00:18:27;;;;;;;10.43;5.15;;;;;;;;;;5016113;28;20133;-77
2023/06/28 00:20:53;;;;;;;7.45;4.22;;;;;;;;;;5015524;28;20366;-77
2023/06/28 00:23:19;;;;;;;10.48;4.45;;;;;;;;;;5015551;28;20045;-77
2023/06/28 00:25:45;;;;;;;9.45;4.45;;;;;;;;;;5016099;28;20058;-77
2023/06/28 00:28:11;;;;;;;8.68;4.03;;;;;;;;;;4997717;28;20488;-77
2023/06/28 00:30:37;;;;;;;9.60;3.53;;;;;;;;;;5015708;28;20056;-77
2023/06/28 00:33:03;;;;;;;7.10;3.70;;;;;;;;;;5016197;28;20127;-77
2023/06/28 00:35:29;;;;;;;7.32;3.67;;;;;;;;;;5015300;28;20096;-77
2023/06/28 00:37:56;;;;;;;10.90;4.22;;;;;;;;;;5015479;28;20042;-77
2023/06/28 00:40:22;;;;;;;7.78;4.10;;;;;;;;;;5013908;28;20045;-77
2023/06/28 00:42:48;;;;;;;4.82;3.38;;;;;;;;;;5015766;28;20081;-77
2023/06/28 00:45:14;;;;;;;5.85;3.28;;;;;;;;;;5015635;28;20041;-77
2023/06/28 00:47:42;;;;;;;5.55;3.38;;;;;;;;;;5014951;28;20497;-77
2023/06/28 00:50:08;;;;;;;4.53;3.03;;;;;;;;;;5015066;28;20049;-77
2023/06/28 00:52:34;;;;;;;3.75;3.05;;;;;;;;;;5014918;28;20054;-77
2023/06/28 00:55:01;;;;;;;6.20;3.15;;;;;;;;;;5015109;28;20099;-77
2023/06/28 00:57:27;;;;;;;6.80;3.17;;;;;;;;;;5015273;28;20041;-77
2023/06/28 00:59:54;;;;;;;6.40;3.10;;;;;;;;;;5015055;28;20046;-77
2023/06/28 01:02:20;;;;;;;5.60;3.30;;;;;;;;;;5014482;28;20038;-77
2023/06/28 01:04:46;;;;;;;6.32;2.88;;;;;;;;;;5014837;28;20088;-77
2023/06/28 01:07:13;;;;;;;8.00;3.83;;;;;;;;;;5014757;28;20387;-77
2023/06/28 01:09:40;;;;;;;7.80;2.80;;;;;;;;;;5014729;28;20552;-77
2023/06/28 01:12:07;;;;;;;8.38;3.15;;;;;;;;;;5014660;28;20038;-77
2023/06/28 01:14:33;;;;;;;7.22;3.42;;;;;;;;;;5014985;28;20101;-77
2023/06/28 01:16:59;;;;;;;8.95;3.60;;;;;;;;;;5014578;28;20046;-78
2023/06/28 01:19:26;;;;;;;5.55;2.85;;;;;;;;;;5014632;28;20038;-77
2023/06/28 01:21:56;;;;;;;15.23;3.72;;;;;;;;;;5014468;28;20053;-77
2023/06/28 01:24:22;;;;;;;6.95;3.38;;;;;;;;;;5014481;28;20053;-77
2023/06/28 01:26:52;;;;;;;9.75;4.15;;;;;;;;;;5014367;28;20056;-78
2023/06/28 01:29:23;;;;;;;6.53;3.85;;;;;;;;;;5014648;28;20120;-77
2023/06/28 01:31:53;;;;;;;6.00;3.75;;;;;;;;;;5018950;28;20045;-77
2023/06/28 01:34:19;;;;;;;7.68;3.30;;;;;;;;;;5022504;28;20050;-77
2023/06/28 01:36:47;;;;;;;7.10;3.35;;;;;;;;;;5021213;28;20048;-77
2023/06/28 01:39:13;;;;;;;7.45;3.58;;;;;;;;;;5018656;28;20132;-78
2023/06/28 01:41:40;;;;;;;7.90;3.83;;;;;;;;;;5014304;28;20129;-77
2023/06/28 01:44:06;;;;;;;5.88;2.85;;;;;;;;;;5014631;28;20042;-77
2023/06/28 01:46:32;;;;;;;4.25;3.05;;;;;;;;;;5014196;28;20053;-77
2023/06/28 01:48:58;;;;;;;6.32;3.53;;;;;;;;;;5014387;28;20046;-77
2023/06/28 01:51:24;;;;;;;7.63;2.97;;;;;;;;;;5014007;28;20046;-77
2023/06/28 01:53:51;;;;;;;4.85;2.78;;;;;;;;;;5014039;28;20041;-78
2023/06/28 01:56:17;;;;;;;4.95;3.05;;;;;;;;;;5014483;28;20042;-77
2023/06/28 01:58:43;;;;;;;4.50;2.90;;;;;;;;;;5013229;28;20095;-77
2023/06/28 02:01:09;;;;;;;6.78;3.00;;;;;;;;;;5012476;28;20385;-76
2023/06/28 02:03:35;;;;;;;5.95;3.13;;;;;;;;;;5013920;28;20062;-76
2023/06/28 02:06:01;;;;;;;6.43;3.03;;;;;;;;;;5013630;28;20049;-76
2023/06/28 02:08:27;;;;;;;8.77;3.65;;;;;;;;;;5014316;28;20081;-76
2023/06/28 02:10:53;;;;;;;6.00;2.72;;;;;;;;;;5013603;28;20046;-77
2023/06/28 02:13:19;;;;;;;3.63;2.88;;;;;;;;;;5013997;28;20042;-76
2023/06/28 02:15:45;;;;;;;4.95;3.05;;;;;;;;;;5013777;28;20504;-76
2023/06/28 02:18:14;;;;;;;4.93;2.78;;;;;;;;;;5013861;28;20107;-76
2023/06/28 02:20:40;;;;;;;5.18;2.88;;;;;;;;;;5012169;28;20057;-77
2023/06/28 02:23:06;;;;;;;4.95;3.42;;;;;;;;;;5014142;28;20050;-76
2023/06/28 02:25:32;;;;;;;4.30;2.95;;;;;;;;;;5013033;28;20054;-76
2023/06/28 02:27:58;;;;;;;7.18;3.20;;;;;;;;;;5013881;28;20526;-77
2023/06/28 02:30:24;;;;;;;5.68;3.13;;;;;;;;;;5013221;28;20045;-76
2023/06/28 02:32:51;;;;;;;5.38;2.92;;;;;;;;;;5013955;28;20049;-76
2023/06/28 02:35:17;;;;;;;6.45;3.10;;;;;;;;;;5013310;28;20125;-76
2023/06/28 02:37:43;;;;;;;5.60;3.05;;;;;;;;;;5013825;28;20056;-76
2023/06/28 02:40:10;;;;;;;6.75;3.40;;;;;;;;;;5013157;28;20081;-76
2023/06/28 02:42:36;;;;;;;4.95;3.58;;;;;;;;;;5013346;28;20081;-76
2023/06/28 02:45:02;;;;;;;5.05;3.60;;;;;;;;;;5013803;28;20050;-76
2023/06/28 02:47:28;;;;;;;7.00;3.88;;;;;;;;;;5013464;28;20127;-77
2023/06/28 02:49:54;;;;;;;6.35;3.45;;;;;;;;;;5013848;28;20046;-76
2023/06/28 02:52:20;;;;;;;4.70;3.35;;;;;;;;;;5013066;28;20358;-76
2023/06/28 02:54:46;;;;;;;5.30;3.20;;;;;;;;;;5013496;28;20554;-76
2023/06/28 02:57:13;;;;;;;4.78;3.03;;;;;;;;;;5013183;28;20441;-76
2023/06/28 02:59:39;;;;;;;5.35;3.20;;;;;;;;;;5013224;28;20046;-76
2023/06/28 03:02:05;;;;;;;6.25;3.35;;;;;;;;;;5013512;28;20161;-76
2023/06/28 03:04:32;;;;;;;5.47;3.10;;;;;;;;;;5013324;28;20042;-76
2023/06/28 03:06:59;;;;;;;9.93;3.67;;;;;;;;;;5012960;28;20054;-76
2023/06/28 03:09:25;;;;;;;7.10;3.25;;;;;;;;;;5014779;28;20121;-76
2023/06/28 03:11:51;;;;;;;4.53;3.33;;;;;;;;;;5017085;28;20049;-76
2023/06/28 03:14:17;;;;;;;6.25;3.63;;;;;;;;;;5017432;28;20052;-76
2023/06/28 03:16:43;;;;;;;6.43;3.83;;;;;;;;;;5017180;28;20042;-76
2023/06/28 03:19:11;;;;;;;5.40;3.40;;;;;;;;;;5017096;28;20057;-76
2023/06/28 03:21:38;;;;;;;6.00;3.60;;;;;;;;;;5016838;28;20176;-76
2023/06/28 03:24:04;;;;;;;8.35;3.72;;;;;;;;;;5016493;28;20054;-76
2023/06/28 03:26:30;;;;;;;6.13;4.00;;;;;;;;;;5016640;28;20081;-75
2023/06/28 03:28:58;;;;;;;4.95;3.70;;;;;;;;;;5016722;28;20061;-76
2023/06/28 03:31:24;;;;;;;7.03;3.58;;;;;;;;;;5016472;28;20492;-76
2023/06/28 03:33:50;;;;;;;5.53;3.72;;;;;;;;;;5016738;28;20054;-76
2023/06/28 03:36:16;;;;;;;6.30;4.03;;;;;;;;;;5016886;28;20045;-75
2023/06/28 03:38:42;;;;;;;6.68;3.70;;;;;;;;;;5016686;28;20046;-75
2023/06/28 03:41:08;;;;;;;4.95;3.75;;;;;;;;;;5016374;28;20121;-77
2023/06/28 03:43:34;;;;;;;4.93;3.40;;;;;;;;;;5016477;28;20089;-76
2023/06/28 03:46:01;;;;;;;7.65;3.65;;;;;;;;;;5016483;28;20042;-76
2023/06/28 03:48:27;;;;;;;5.75;3.88;;;;;;;;;;5016540;28;20491;-75
2023/06/28 03:50:53;;;;;;;8.15;3.75;;;;;;;;;;5016051;28;20224;-75
2023/06/28 03:53:19;;;;;;;6.55;3.85;;;;;;;;;;5015434;28;20519;-76
2023/06/28 03:55:45;;;;;;;4.55;3.38;;;;;;;;;;5016360;28;20046;-76
2023/06/28 03:58:12;;;;;;;6.10;3.75;;;;;;;;;;5016261;28;20076;-76
2023/06/28 04:00:38;;;;;;;6.05;3.70;;;;;;;;;;5016138;28;20045;-76
2023/06/28 04:03:05;;;;;;;5.95;3.40;;;;;;;;;;5016254;28;20046;-75
2023/06/28 04:05:32;;;;;;;7.25;3.60;;;;;;;;;;5014250;28;20054;-76
2023/06/28 04:07:58;;;;;;;5.40;3.90;;;;;;;;;;5016104;28;20049;-76
2023/06/28 04:10:25;;;;;;;6.03;3.70;;;;;;;;;;5015609;28;20571;-76
2023/06/28 04:12:51;;;;;;;6.75;3.55;;;;;;;;;;5015526;28;20523;-76
2023/06/28 04:15:17;;;;;;;5.28;3.78;;;;;;;;;;5021808;28;20042;-76
2023/06/28 04:17:43;;;;;;;4.93;3.88;;;;;;;;;;5035578;28;20474;-76
2023/06/28 04:20:10;;;;;;;6.38;3.22;;;;;;;;;;5035287;28;20049;-76
2023/06/28 04:22:36;;;;;;;5.97;3.40;;;;;;;;;;5034987;28;20053;-75
2023/06/28 04:25:03;;;;;;;6.32;3.60;;;;;;;;;;5035325;28;20058;-75
2023/06/28 04:27:29;;;;;;;7.40;3.75;;;;;;;;;;5035724;28;20049;-75
2023/06/28 04:29:55;;;;;;;6.00;3.25;;;;;;;;;;5035257;28;20041;-75
2023/06/28 04:32:23;;;;;;;6.38;3.70;;;;;;;;;;5035421;28;20083;-74
2023/06/28 04:34:52;;;;;;;7.38;3.28;;;;;;;;;;5035299;28;20149;-75
2023/06/28 04:37:18;;;;;;;5.80;3.20;;;;;;;;;;5035751;28;20151;-75
2023/06/28 04:39:44;;;;;;;6.88;3.78;;;;;;;;;;5035470;28;20045;-75
2023/06/28 04:42:14;;;;;;;8.43;4.20;;;;;;;;;;5035344;28;20361;-75
2023/06/28 04:44:41;;;;;;;6.75;3.90;;;;;;;;;;5034935;28;20429;-75
2023/06/28 04:47:08;;;;;;;8.43;4.15;;;;;;;;;;5035344;28;20050;-75
2023/06/28 04:49:35;;;;;;;8.52;4.10;;;;;;;;;;5035145;28;20053;-75
2023/06/28 04:52:01;;;;;;;6.35;4.07;;;;;;;;;;5034959;28;20056;-75
2023/06/28 04:54:27;;;;;;;8.82;4.55;;;;;;;;;;5034825;28;20389;-75
2023/06/28 04:56:53;;;;;;;7.45;4.65;;;;;;;;;;5034516;28;20400;-75
2023/06/28 04:59:19;;;;;;;5.57;4.35;;;;;;;;;;5033388;28;20053;-75
2023/06/28 05:01:45;;;;;;;8.68;4.70;;;;;;;;;;5034880;28;20057;-75
2023/06/28 05:04:12;;;;;;;7.80;4.47;;;;;;;;;;5034973;28;20064;-75
2023/06/28 05:06:38;;;;;;;7.03;4.57;;;;;;;;;;5034978;28;20041;-75
2023/06/28 05:09:04;;;;;;;6.22;4.28;;;;;;;;;;5034918;28;20056;-75
2023/06/28 05:11:30;;;;;;;6.55;4.63;;;;;;;;;;5034635;28;20041;-75
2023/06/28 05:13:56;;;;;;;8.77;4.80;;;;;;;;;;5034823;28;20128;-75
2023/06/28 05:16:22;;;;;;;6.88;4.97;;;;;;;;;;5037346;28;20042;-75
2023/06/28 05:18:48;;;;;;;9.77;5.13;;;;;;;;;;5039787;28;20148;-75
2023/06/28 05:21:14;;;;;;;9.43;5.15;;;;;;;;;;5039452;28;20050;-75
2023/06/28 05:23:40;;;;;;;5.90;4.72;;;;;;;;;;5034499;28;20048;-76
2023/06/28 05:26:06;;;;;;;6.75;4.72;;;;;;;;;;5034683;28;20057;-76
2023/06/28 05:28:32;;;;;;;9.38;4.88;;;;;;;;;;5034590;28;20056;-76
2023/06/28 05:30:58;;;;;;;10.80;5.13;;;;;;;;;;5033920;28;20531;-76
2023/06/28 05:33:24;;;;;;;11.10;5.10;;;;;;;;;;5033974;28;20050;-76
2023/06/28 05:35:50;;;;;;;8.60;4.82;;;;;;;;;;5034286;28;20456;-76
2023/06/28 05:38:17;;;;;;;10.60;5.05;;;;;;;;;;5034077;28;20380;-76
2023/06/28 05:40:43;;;;;;;8.75;4.90;;;;;;;;;;5033945;28;20045;-76
2023/06/28 05:43:09;;;;;;;9.52;5.30;;;;;;;;;;5034015;28;20049;-76
2023/06/28 05:45:35;;;;;;;8.90;5.10;;;;;;;;;;5033737;28;20049;-76
2023/06/28 05:48:01;;;;;;;9.02;5.28;;;;;;;;;;5033743;28;20128;-76
2023/06/28 05:50:27;;;;;;;7.53;5.20;;;;;;;;;;5032206;28;20045;-76
2023/06/28 05:52:53;;;;;;;8.88;5.45;;;;;;;;;;5033831;28;20084;-76
2023/06/28 05:55:19;;;;;;;9.40;5.60;;;;;;;;;;5033908;28;20132;-76
2023/06/28 05:57:46;;;;;;;10.98;6.22;;;;;;;;;;5034104;28;20128;-76
2023/06/28 06:00:12;;;;;;;15.43;7.32;;;;;;;;;;5033469;28;20128;-76
2023/06/28 06:02:39;;;;;;;14.57;7.38;;;;;;;;;;5033660;28;20124;-75
2023/06/28 06:05:06;;;;;;;9.90;6.50;;;;;;;;;;5033863;28;20123;-76
2023/06/28 06:07:34;;;;;;;11.45;6.90;;;;;;;;;;5033242;28;20049;-76
2023/06/28 06:10:00;;;;;;;8.98;6.50;;;;;;;;;;5032355;28;20083;-76
2023/06/28 06:12:26;;;;;;;10.80;5.97;;;;;;;;;;5033388;28;20431;-76
2023/06/28 06:14:52;;;;;;;10.73;6.45;;;;;;;;;;5033471;28;20555;-75
2023/06/28 06:17:18;;;;;;;11.00;6.40;;;;;;;;;;5033556;28;20172;-76
2023/06/28 06:19:44;;;;;;;8.65;6.13;;;;;;;;;;5033470;28;20095;-76
2023/06/28 06:22:11;;;;;;;12.07;6.40;;;;;;;;;;5033162;28;20045;-77
2023/06/28 06:24:37;;;;;;;10.13;6.10;;;;;;;;;;5031643;28;20060;-76
2023/06/28 06:27:03;;;;;;;9.20;6.18;;;;;;;;;;5033192;28;20049;-75
2023/06/28 06:29:29;;;;;;;10.27;6.32;;;;;;;;;;5033057;28;20041;-76
2023/06/28 06:31:55;;;;;;;12.05;6.60;;;;;;;;;;5032928;28;20420;-76
2023/06/28 06:34:22;;;;;;;8.95;6.43;;;;;;;;;;5033325;28;20046;-76
2023/06/28 06:36:48;;;;;;;10.90;6.22;;;;;;;;;;5033490;28;20048;-75
2023/06/28 06:39:14;;;;;;;11.05;6.65;;;;;;;;;;5033381;28;20041;-75
2023/06/28 06:41:40;;;;;;;10.98;6.20;;;;;;;;;;5031607;28;20049;-75
2023/06/28 06:44:06;;;;;;;9.77;6.32;;;;;;;;;;5032629;28;20077;-75
2023/06/28 06:46:32;;;;;;;8.35;6.60;;;;;;;;;;5033059;28;20136;-75
2023/06/28 06:48:58;;;;;;;14.63;6.28;;;;;;;;;;5032444;28;20130;-75
2023/06/28 06:51:24;;;;;;;10.02;6.35;;;;;;;;;;5033048;28;20046;-75
2023/06/28 06:53:50;;;;;;;8.60;6.38;;;;;;;;;;5032891;28;20470;-75
2023/06/28 06:56:22;;;;;;;11.23;7.03;;;;;;;;;;5017327;28;20054;-75
2023/06/28 06:58:49;;;;;;;9.90;6.60;;;;;;;;;;5013231;28;20084;-75
2023/06/28 07:01:15;;;;;;;11.55;7.03;;;;;;;;;;5013057;28;20077;-75
2023/06/28 07:03:41;;;;;;;7.88;6.30;;;;;;;;;;5012967;28;20046;-75
2023/06/28 07:06:07;;;;;;;10.63;6.90;;;;;;;;;;5012804;28;20046;-75
2023/06/28 07:08:34;;;;;;;9.55;6.90;;;;;;;;;;5013273;28;20054;-75
2023/06/28 07:11:01;;;;;;;10.48;6.13;;;;;;;;;;5012728;28;20046;-75
2023/06/28 07:13:27;;;;;;;14.38;7.60;;;;;;;;;;5012980;28;20132;-75
2023/06/28 07:15:53;;;;;;;10.63;6.75;;;;;;;;;;5023453;28;20495;-75
2023/06/28 07:18:19;;;;;;;11.95;6.88;;;;;;;;;;5032879;28;20171;-75
2023/06/28 07:20:46;;;;;;;10.90;6.90;;;;;;;;;;5032709;28;20240;-75
2023/06/28 07:23:12;;;;;;;9.63;6.72;;;;;;;;;;5032893;28;20135;-75
2023/06/28 07:25:38;;;;;;;12.82;7.10;;;;;;;;;;5032208;28;20053;-75
2023/06/28 07:28:05;;;;;;;18.52;7.60;;;;;;;;;;5032741;28;20060;-75
2023/06/28 07:30:50;;;;;;;13.65;7.18;;;;;;;;;;5032566;28;20052;-75
2023/06/28 07:33:16;;;;;;;10.90;7.40;;;;;;;;;;5031443;28;20049;-76
2023/06/28 07:35:42;;;;;;;12.93;6.75;;;;;;;;;;5032359;28;20060;-76
2023/06/28 07:38:08;;;;;;;12.85;7.90;;;;;;;;;;5032706;28;20492;-76
2023/06/28 07:40:34;;;;;;;11.20;7.40;;;;;;;;;;5032772;28;20046;-77
2023/06/28 07:43:02;;;;;;;13.75;7.68;;;;;;;;;;5032498;28;20479;-77
2023/06/28 07:45:28;;;;;;;10.45;6.95;;;;;;;;;;5032116;28;20514;-76
2023/06/28 07:47:55;;;;;;;10.57;7.25;;;;;;;;;;5032145;28;20053;-77
2023/06/28 07:50:22;;;;;;;11.63;7.68;;;;;;;;;;5032157;28;20156;-77
2023/06/28 07:52:48;;;;;;;15.07;7.93;;;;;;;;;;5032613;28;20049;-77
2023/06/28 07:55:14;;;;;;;13.25;7.75;;;;;;;;;;5031212;28;20046;-77
2023/06/28 07:57:40;;;;;;;12.15;7.55;;;;;;;;;;5035389;28;20128;-77
2023/06/28 08:00:07;;;;;;;12.75;8.00;;;;;;;;;;5036008;28;20053;-77
2023/06/28 08:02:33;;;;;;;13.85;7.90;;;;;;;;;;5034699;28;20052;-77
2023/06/28 08:04:59;;;;;;;12.50;7.38;;;;;;;;;;5035920;28;20056;-77
2023/06/28 08:07:25;;;;;;;11.77;7.60;;;;;;;;;;5017781;28;20042;-77
2023/06/28 08:09:51;;;;;;;10.27;7.35;;;;;;;;;;5034506;28;20484;-76
2023/06/28 08:12:17;;;;;;;9.95;7.03;;;;;;;;;;5035598;28;20042;-76
2023/06/28 08:14:43;;;;;;;14.55;8.05;;;;;;;;;;5034907;28;20045;-76
2023/06/28 08:17:10;;;;;;;14.10;7.70;;;;;;;;;;5015344;28;20056;-76
2023/06/28 08:19:36;;;;;;;13.45;8.15;;;;;;;;;;5015847;28;20046;-76
2023/06/28 08:22:03;;;;;;;13.07;7.90;;;;;;;;;;5014477;28;20050;-77
2023/06/28 08:24:32;;;;;;;12.35;8.40;;;;;;;;;;5015402;28;20054;-76
2023/06/28 08:26:58;;;;;;;15.52;8.55;;;;;;;;;;5015727;28;20050;-76
2023/06/28 08:29:24;;;;;;;13.05;8.35;;;;;;;;;;5015623;28;20041;-76
2023/06/28 08:31:50;;;;;;;13.65;7.95;;;;;;;;;;5015394;28;20095;-76
2023/06/28 08:34:16;;;;;;;12.13;8.00;;;;;;;;;;5015329;28;20057;-76
2023/06/28 08:36:43;;;;;;;15.02;8.48;;;;;;;;;;5015563;28;20042;-76
2023/06/28 08:39:09;;;;;;;11.30;8.48;;;;;;;;;;5015565;28;20048;-76
2023/06/28 08:41:35;;;;;;;12.77;8.63;;;;;;;;;;5015134;28;20408;-76
2023/06/28 08:44:02;;;;;;;12.50;8.60;;;;;;;;;;5015453;28;20045;-76
2023/06/28 08:46:29;;;;;;;14.65;8.57;;;;;;;;;;5015379;28;20132;-76
2023/06/28 08:48:56;;;;;;;14.02;9.30;;;;;;;;;;5015236;28;20116;-76
2023/06/28 08:51:23;;;;;;;12.15;8.65;;;;;;;;;;5015107;28;20103;-76
2023/06/28 08:53:49;;;;;;;13.77;9.73;;;;;;;;;;5013960;28;20085;-76
2023/06/28 08:56:15;;;;;;;11.60;8.55;;;;;;;;;;5015222;28;20070;-76
2023/06/28 08:58:42;;;;;;;13.30;8.70;;;;;;;;;;5017420;28;20050;-76
2023/06/28 09:01:12;;;;;;;11.90;8.88;;;;;;;;;;5020363;28;20050;-76
2023/06/28 09:03:42;;;;;;;11.90;9.18;;;;;;;;;;5020565;28;20049;-76
2023/06/28 09:06:08;;;;;;;11.07;8.88;;;;;;;;;;5014804;28;20050;-76
2023/06/28 09:08:35;;;;;;;16.25;9.20;;;;;;;;;;5015160;28;20172;-77
2023/06/28 09:11:01;;;;;;;12.68;9.80;;;;;;;;;;5014754;28;20053;-77
2023/06/28 09:13:29;;;;;;;12.25;8.68;;;;;;;;;;5014973;28;20123;-77
2023/06/28 09:15:56;;;;;;;14.75;9.30;;;;;;;;;;5025117;28;20052;-76
2023/06/28 09:18:22;;;;;;;13.40;9.30;;;;;;;;;;5034836;28;20045;-77
2023/06/28 09:20:52;;;;;;;15.25;9.05;;;;;;;;;;5033975;28;20503;-76
2023/06/28 09:23:25;;;;;;;12.98;9.82;;;;;;;;;;5034106;28;20443;-77
2023/06/28 09:25:51;;;;;;;13.40;9.45;;;;;;;;;;5032533;28;20053;-77
2023/06/28 09:28:19;;;;;;;14.30;9.25;;;;;;;;;;5034252;28;20080;-75
2023/06/28 09:30:51;;;;;;;11.75;8.88;;;;;;;;;;5034323;28;20049;-76
2023/06/28 09:33:18;;;;;;;12.88;9.25;;;;;;;;;;5033991;28;20041;-76
2023/06/28 09:35:44;;;;;;;12.90;9.57;;;;;;;;;;5033832;28;20424;-76
2023/06/28 09:38:10;;;;;;;12.90;9.80;;;;;;;;;;5034475;28;20042;-76
2023/06/28 09:40:37;;;;;;;13.75;9.38;;;;;;;;;;5033936;28;20049;-76
2023/06/28 09:43:03;;;;;;;12.55;9.38;;;;;;;;;;5034172;28;20049;-76
2023/06/28 09:45:30;;;;;;;13.65;10.45;;;;;;;;;;5033817;28;20053;-77
2023/06/28 09:47:57;;;;;;;10.90;9.23;;;;;;;;;;5033951;28;20543;-76
2023/06/28 09:50:42;;;;;;;13.38;9.80;;;;;;;;;;5032132;28;20048;-76
2023/06/28 09:53:13;;;;;;;12.77;9.90;;;;;;;;;;5034039;28;20064;-76
2023/06/28 09:55:39;;;;;;;12.77;9.70;;;;;;;;;;5033410;28;20124;-76
2023/06/28 09:58:07;;;;;;;11.48;8.90;;;;;;;;;;5033647;28;20041;-76
2023/06/28 10:00:33;;;;;;;12.70;9.82;;;;;;;;;;5033527;28;20041;-76
2023/06/28 10:03:00;;;;;;;13.10;10.18;;;;;;;;;;5033769;28;20073;-76
2023/06/28 10:05:27;;;;;;;13.98;10.27;;;;;;;;;;5033473;28;20501;-76
2023/06/28 10:07:54;;;;;;;14.05;10.38;;;;;;;;;;5033420;28;20045;-76
2023/06/28 10:10:20;;;;;;;14.45;10.13;;;;;;;;;;5032056;28;20037;-76
2023/06/28 10:12:47;;;;;;;13.13;9.98;;;;;;;;;;5033416;28;20081;-76
2023/06/28 10:15:16;;;;;;;12.27;9.70;;;;;;;;;;5031739;28;20056;-77
2023/06/28 10:17:43;;;;;;;12.48;10.32;;;;;;;;;;5033861;28;20073;-77
2023/06/28 10:20:10;;;;;;;14.88;10.70;;;;;;;;;;5032733;28;20056;-76
2023/06/28 10:22:37;;;;;;;13.43;10.05;;;;;;;;;;5033382;28;20045;-77
2023/06/28 10:25:03;;;;;;;14.10;10.65;;;;;;;;;;5033246;28;20057;-76
2023/06/28 10:27:29;;;;;;;14.57;11.00;;;;;;;;;;5033752;28;20057;-76
2023/06/28 10:29:57;;;;;;;15.48;10.98;;;;;;;;;;5033258;28;20137;-76
2023/06/28 10:32:24;;;;;;;15.63;11.00;;;;;;;;;;5033499;28;20126;-76
2023/06/28 10:34:50;;;;;;;13.25;10.90;;;;;;;;;;5033965;28;20053;-76
2023/06/28 10:37:23;;;;;;;13.68;11.07;;;;;;;;;;5033334;28;20049;-76
2023/06/28 10:39:53;;;;;;;14.00;10.68;;;;;;;;;;5033178;28;20456;-76
2023/06/28 10:42:20;;;;;;;16.13;10.73;;;;;;;;;;5032666;28;20527;-76
2023/06/28 10:44:53;;;;;;;12.80;10.90;;;;;;;;;;5032722;28;20045;-76
2023/06/28 10:47:19;;;;;;;15.93;11.65;;;;;;;;;;5033041;28;20105;-76
2023/06/28 10:50:04;;;;;;;16.00;11.40;;;;;;;;;;5032822;28;20045;-76
2023/06/28 10:52:31;;;;;;;14.48;12.15;;;;;;;;;;5032974;28;20116;-76
2023/06/28 10:54:57;;;;;;;15.13;12.07;;;;;;;;;;5033552;28;20438;-76
2023/06/28 10:57:55;;;;;;;16.52;12.57;;;;;;;;;;5033158;28;20136;-76
2023/06/28 11:00:40;;;;;;;16.13;12.32;;;;;;;;;;5031311;28;20111;-76
2023/06/28 11:03:07;;;;;;;16.48;12.32;;;;;;;;;;5033156;28;20439;-76
2023/06/28 11:05:45;;;;;;;17.55;13.15;;;;;;;;;;5033007;28;20125;-76
2023/06/28 11:08:15;;;;;;;17.02;13.02;;;;;;;;;;5033049;28;20042;-76
2023/06/28 11:10:42;;;;;;;18.15;12.60;;;;;;;;;;5032768;28;20174;-76
2023/06/28 11:13:09;;;;;;;18.20;13.45;;;;;;;;;;5033266;28;20099;-76
2023/06/28 11:15:35;;;;;;;21.10;13.52;;;;;;;;;;5024356;28;20068;-76
2023/06/28 11:18:10;;;;;;;17.00;13.48;;;;;;;;;;5013819;28;20046;-76
2023/06/28 11:20:56;;;;;;;18.30;13.65;;;;;;;;;;5013149;28;20116;-76
2023/06/28 11:23:23;;;;;;;19.25;13.27;;;;;;;;;;5012833;28;20579;-76
2023/06/28 11:25:55;;;;;;;15.73;12.75;;;;;;;;;;5012786;28;20137;-76
2023/06/28 11:28:28;;;;;;;19.65;12.75;;;;;;;;;;5013348;28;20113;-76
2023/06/28 11:30:54;;;;;;;15.73;13.25;;;;;;;;;;5014739;28;20049;-76
2023/06/28 11:33:21;;;;;;;17.80;13.75;;;;;;;;;;5016896;28;20041;-76
2023/06/28 11:35:48;;;;;;;17.90;13.32;;;;;;;;;;5016893;28;20153;-76
2023/06/28 11:38:14;;;;;;;16.23;13.45;;;;;;;;;;4999299;28;20049;-76
2023/06/28 11:40:40;;;;;;;17.55;12.60;;;;;;;;;;5016186;28;20053;-76
2023/06/28 11:43:06;;;;;;;16.75;13.07;;;;;;;;;;5016484;28;20085;-77
2023/06/28 11:45:33;;;;;;;16.00;12.77;;;;;;;;;;5016183;28;20058;-77
2023/06/28 11:47:59;;;;;;;14.20;11.90;;;;;;;;;;5016518;28;20053;-77
2023/06/28 11:50:25;;;;;;;16.67;12.35;;;;;;;;;;5016442;28;20077;-77
2023/06/28 11:52:52;;;;;;;14.75;11.52;;;;;;;;;;5016080;28;20512;-77
2023/06/28 11:55:19;;;;;;;15.68;12.30;;;;;;;;;;5016098;28;20385;-77
2023/06/28 11:57:45;;;;;;;15.85;12.18;;;;;;;;;;5016079;28;20120;-76
2023/06/28 12:00:16;;;;;;;14.02;11.32;;;;;;;;;;5016284;28;20136;-76
2023/06/28 12:02:51;;;;;;;14.90;12.38;;;;;;;;;;5016476;28;20132;-76
2023/06/28 12:05:18;;;;;;;13.57;11.88;;;;;;;;;;5015910;28;20053;-76
2023/06/28 12:07:48;;;;;;;14.32;12.55;;;;;;;;;;5016281;28;20061;-77
2023/06/28 12:10:16;;;;;;;16.73;11.98;;;;;;;;;;5016450;28;20092;-76
2023/06/28 12:12:42;;;;;;;15.68;11.60;;;;;;;;;;5016345;28;20069;-76
2023/06/28 12:15:14;;;;;;;15.43;12.07;;;;;;;;;;5020265;28;20045;-76
2023/06/28 12:17:41;;;;;;;16.00;12.15;;;;;;;;;;5035247;28;20383;-76
2023/06/28 12:20:08;;;;;;;13.70;11.63;;;;;;;;;;5034403;28;20056;-76
2023/06/28 12:22:38;;;;;;;15.82;12.43;;;;;;;;;;5035466;28;20117;-76
2023/06/28 12:25:05;;;;;;;15.15;12.10;;;;;;;;;;5035061;28;20060;-76
2023/06/28 12:27:31;;;;;;;15.75;13.23;;;;;;;;;;5035423;28;20103;-76
2023/06/28 12:29:57;;;;;;;16.73;13.68;;;;;;;;;;5035575;28;20104;-76
2023/06/28 12:32:25;;;;;;;17.92;13.40;;;;;;;;;;5035314;28;20368;-76
2023/06/28 12:34:51;;;;;;;20.58;14.82;;;;;;;;;;5035365;28;20053;-76
2023/06/28 12:37:18;;;;;;;22.13;16.58;;;;;;;;;;5035569;28;20046;-76
2023/06/28 12:39:44;;;;;;;21.00;16.65;;;;;;;;;;5035534;28;20045;-76
2023/06/28 12:42:18;;;;;;;22.02;16.50;;;;;;;;;;5037520;28;20048;-76
2023/06/28 12:44:50;;;;;;;23.90;17.20;;;;;;;;;;5040977;28;20171;-76
2023/06/28 12:47:17;;;;;;;24.58;18.25;;;;;;;;;;5039586;28;20041;-77
2023/06/28 12:49:44;;;;;;;22.00;16.88;;;;;;;;;;5036279;28;20045;-76
2023/06/28 12:52:10;;;;;;;25.15;18.55;;;;;;;;;;5035014;28;20046;-76
2023/06/28 12:54:36;;;;;;;24.45;17.60;;;;;;;;;;5034905;28;20046;-76
2023/06/28 12:57:03;;;;;;;28.08;20.00;;;;;;;;;;5034460;28;20054;-76
2023/06/28 12:59:32;;;;;;;26.17;20.30;;;;;;;;;;5034527;28;20120;-77
2023/06/28 13:01:58;;;;;;;27.55;20.83;;;;;;;;;;5034828;28;20127;-76
2023/06/28 13:04:27;;;;;;;28.55;20.73;;;;;;;;;;5034872;28;20048;-76
2023/06/28 13:06:53;;;;;;;27.73;20.60;;;;;;;;;;5034549;28;20052;-76
2023/06/28 13:09:19;;;;;;;28.55;20.90;;;;;;;;;;5034666;28;20045;-75
2023/06/28 13:11:45;;;;;;;29.85;22.27;;;;;;;;;;5034224;28;20372;-76
2023/06/28 13:14:11;;;;;;;32.35;22.42;;;;;;;;;;5033550;28;20046;-76
2023/06/28 13:16:37;;;;;;;31.92;22.60;;;;;;;;;;5034358;28;20069;-76
2023/06/28 13:19:03;;;;;;;33.13;23.98;;;;;;;;;;5034496;28;20037;-77
2023/06/28 13:21:29;;;;;;;32.58;22.63;;;;;;;;;;5033947;28;20133;-77
2023/06/28 13:23:55;;;;;;;32.72;23.80;;;;;;;;;;5034257;28;20068;-77
2023/06/28 13:26:21;;;;;;;33.55;24.98;;;;;;;;;;5034322;28;20049;-76
2023/06/28 13:28:47;;;;;;;35.22;24.88;;;;;;;;;;5032807;28;20147;-77
2023/06/28 13:31:14;;;;;;;32.78;24.52;;;;;;;;;;5034133;28;20045;-77
2023/06/28 13:33:40;;;;;;;33.15;24.52;;;;;;;;;;5033108;28;20481;-77
2023/06/28 13:36:06;;;;;;;34.20;25.05;;;;;;;;;;5034028;28;20480;-77
2023/06/28 13:38:32;;;;;;;34.97;25.40;;;;;;;;;;5034187;28;20127;-76
2023/06/28 13:40:58;;;;;;;34.88;24.88;;;;;;;;;;5034606;28;20052;-78
2023/06/28 13:43:24;;;;;;;32.88;24.15;;;;;;;;;;5034167;28;20049;-77
2023/06/28 13:45:50;;;;;;;31.25;24.88;;;;;;;;;;5033769;28;20103;-77
2023/06/28 13:48:17;;;;;;;36.38;25.55;;;;;;;;;;5033827;28;20126;-77
2023/06/28 13:50:43;;;;;;;38.53;26.27;;;;;;;;;;5033636;28;20125;-76
2023/06/28 13:53:09;;;;;;;35.53;25.27;;;;;;;;;;5033054;28;20053;-76
2023/06/28 13:55:35;;;;;;;35.45;26.38;;;;;;;;;;5033361;28;20041;-77
2023/06/28 13:58:01;;;;;;;35.92;26.15;;;;;;;;;;5032817;28;20045;-77
2023/06/28 14:00:27;;;;;;;37.17;26.48;;;;;;;;;;5032299;28;20060;-77
2023/06/28 14:02:53;;;;;;;38.63;26.40;;;;;;;;;;5032525;28;20049;-77
2023/06/28 14:05:19;;;;;;;38.67;26.42;;;;;;;;;;5032134;28;20052;-77
2023/06/28 14:07:45;;;;;;;39.97;27.83;;;;;;;;;;5033560;28;20053;-77
2023/06/28 14:10:12;;;;;;;39.50;27.27;;;;;;;;;;5033281;28;20046;-76
2023/06/28 14:12:38;;;;;;;39.40;27.73;;;;;;;;;;5033422;28;20072;-76
2023/06/28 14:15:05;;;;;;;48.72;28.33;;;;;;;;;;5033478;28;20088;-76
2023/06/28 14:17:31;;;;;;;39.92;28.65;;;;;;;;;;5033418;28;20116;-76
2023/06/28 14:19:57;;;;;;;41.78;29.73;;;;;;;;;;5032869;28;20458;-76
2023/06/28 14:22:24;;;;;;;42.92;29.45;;;;;;;;;;5032720;28;20451;-76
2023/06/28 14:24:50;;;;;;;42.10;28.60;;;;;;;;;;5033202;28;20061;-76
2023/06/28 14:27:16;;;;;;;40.50;28.88;;;;;;;;;;5033572;28;20053;-76
2023/06/28 14:29:42;;;;;;;41.97;30.02;;;;;;;;;;5032984;28;20463;-76